createdAt,value
2022-09-10T00:01:16.108Z,8.20
2022-09-10T00:03:43.636Z,8.20
2022-09-10T00:06:10.884Z,7.97
2022-09-10T00:08:39.058Z,8.30
2022-09-10T00:11:07.923Z,7.43
2022-09-10T00:13:35.189Z,7.47
2022-09-10T00:16:02.975Z,7.72
2022-09-10T00:18:30.209Z,6.68
2022-09-10T00:20:57.618Z,9.32
2022-09-10T00:23:25.885Z,7.25
2022-09-10T00:25:53.544Z,7.20
2022-09-10T00:28:21.478Z,6.70
2022-09-10T00:30:49.026Z,8.85
2022-09-10T00:33:16.237Z,7.85
2022-09-10T00:35:43.394Z,7.15
2022-09-10T00:38:10.708Z,7.00
2022-09-10T00:40:37.911Z,6.50
2022-09-10T00:43:06.423Z,7.05
2022-09-10T00:45:33.925Z,7.70
2022-09-10T00:48:02.708Z,6.78
2022-09-10T00:50:31.227Z,9.35
2022-09-10T00:52:59.812Z,8.02
2022-09-10T00:55:26.917Z,7.22
2022-09-10T00:57:55.074Z,7.10
2022-09-10T01:00:22.350Z,7.28
2022-09-10T01:02:49.518Z,8.52
2022-09-10T01:05:17.397Z,7.60
2022-09-10T01:07:44.845Z,7.95
2022-09-10T01:10:12.835Z,6.97
2022-09-10T01:12:43.052Z,7.63
2022-09-10T01:15:16.101Z,8.65
2022-09-10T01:17:54.177Z,9.65
2022-09-10T01:20:28.828Z,10.18
2022-09-10T01:22:59.679Z,9.50
2022-09-10T01:25:49.980Z,10.07
2022-09-10T01:28:21.369Z,8.25
2022-09-10T01:30:50.395Z,8.38
2022-09-10T01:33:20.587Z,7.38
2022-09-10T01:35:50.643Z,7.30
2022-09-10T01:38:36.577Z,8.20
2022-09-10T01:41:04.393Z,9.23
2022-09-10T01:43:31.520Z,8.52
2022-09-10T01:46:05.666Z,9.48
2022-09-10T01:48:35.938Z,8.30
2022-09-10T01:51:23.800Z,10.77
2022-09-10T01:53:51.106Z,10.82
2022-09-10T01:56:27.447Z,12.27
2022-09-10T01:58:56.209Z,16.90
2022-09-10T02:01:24.043Z,11.77
2022-09-10T02:03:51.961Z,11.65
2022-09-10T02:06:19.766Z,11.75
2022-09-10T02:08:48.770Z,13.75
2022-09-10T02:11:15.949Z,11.30
2022-09-10T02:13:43.044Z,11.23
2022-09-10T02:16:11.808Z,12.23
2022-09-10T02:18:39.530Z,11.63
2022-09-10T02:21:06.897Z,11.82
2022-09-10T02:23:35.865Z,9.68
2022-09-10T02:26:03.000Z,11.10
2022-09-10T02:28:30.347Z,12.55
2022-09-10T02:30:57.529Z,9.73
2022-09-10T02:33:24.690Z,9.30
2022-09-10T02:35:53.681Z,12.77
2022-09-10T02:38:21.404Z,11.68
2022-09-10T02:40:51.987Z,11.70
2022-09-10T02:43:19.146Z,11.65
2022-09-10T02:45:46.320Z,11.65
2022-09-10T02:48:13.473Z,10.55
2022-09-10T02:50:40.573Z,14.10
2022-09-10T02:53:07.672Z,9.15
2022-09-10T02:55:34.842Z,8.65
2022-09-10T02:58:01.936Z,8.07
2022-09-10T03:00:29.030Z,9.52
2022-09-10T03:03:00.882Z,10.50
2022-09-10T03:05:30.046Z,10.18
2022-09-10T03:07:57.237Z,8.25
2022-09-10T03:10:27.338Z,8.50
2022-09-10T03:12:54.436Z,9.50
2022-09-10T03:15:22.893Z,9.05
2022-09-10T03:17:50.865Z,9.38
2022-09-10T03:20:24.103Z,8.38
2022-09-10T03:22:51.471Z,9.75
2022-09-10T03:25:22.684Z,7.65
2022-09-10T03:27:49.843Z,9.30
2022-09-10T03:30:17.029Z,7.95
2022-09-10T03:32:44.248Z,8.55
2022-09-10T03:35:11.388Z,7.88
2022-09-10T03:37:38.500Z,8.02
2022-09-10T03:40:06.030Z,9.98
2022-09-10T03:42:33.227Z,8.57
2022-09-10T03:45:00.365Z,12.77
2022-09-10T03:47:27.520Z,9.15
2022-09-10T03:49:55.131Z,7.75
2022-09-10T03:52:22.794Z,8.77
2022-09-10T03:54:52.746Z,9.00
2022-09-10T03:57:19.854Z,8.13
2022-09-10T03:59:46.961Z,8.40
2022-09-10T04:02:14.701Z,8.40
2022-09-10T04:04:42.881Z,9.50
2022-09-10T04:07:10.545Z,7.72
2022-09-10T04:09:37.788Z,13.27
2022-09-10T04:12:05.029Z,8.70
2022-09-10T04:14:32.118Z,9.40
2022-09-10T04:16:59.213Z,8.23
2022-09-10T04:19:27.869Z,9.25
2022-09-10T04:21:55.024Z,8.45
2022-09-10T04:24:22.115Z,11.10
2022-09-10T04:26:49.309Z,12.35
2022-09-10T04:29:16.426Z,13.60
2022-09-10T04:31:46.769Z,12.50
2022-09-10T04:34:14.115Z,11.88
2022-09-10T04:36:41.222Z,10.95
2022-09-10T04:39:08.437Z,9.25
2022-09-10T04:41:35.563Z,9.82
2022-09-10T04:44:02.805Z,9.98
2022-09-10T04:46:29.896Z,10.32
2022-09-10T04:48:58.114Z,9.27
2022-09-10T04:51:25.205Z,9.07
2022-09-10T04:53:52.334Z,8.15
2022-09-10T04:56:20.396Z,8.95
2022-09-10T04:58:48.407Z,9.50
2022-09-10T05:01:15.568Z,9.10
2022-09-10T05:03:42.774Z,8.68
2022-09-10T05:06:10.027Z,10.07
2022-09-10T05:08:37.186Z,9.88
2022-09-10T05:11:04.425Z,10.20
2022-09-10T05:13:31.632Z,10.15
2022-09-10T05:15:59.194Z,10.00
2022-09-10T05:18:26.495Z,11.65
2022-09-10T05:20:53.662Z,11.75
2022-09-10T05:23:20.769Z,11.43
2022-09-10T05:25:51.434Z,11.60
2022-09-10T05:28:18.546Z,13.02
2022-09-10T05:30:51.250Z,13.07
2022-09-10T05:33:18.762Z,12.05
2022-09-10T05:35:46.990Z,11.50
2022-09-10T05:38:14.100Z,11.15
2022-09-10T05:40:42.840Z,11.77
2022-09-10T05:43:11.743Z,10.77
2022-09-10T05:45:39.039Z,10.68
2022-09-10T05:48:06.341Z,11.48
2022-09-10T05:50:33.468Z,9.50
2022-09-10T05:53:01.165Z,7.43
2022-09-10T05:55:30.424Z,7.00
2022-09-10T05:57:58.476Z,6.45
2022-09-10T06:00:26.211Z,7.10
2022-09-10T06:02:53.504Z,7.85
2022-09-10T06:05:23.498Z,7.78
2022-09-10T06:07:50.808Z,7.82
2022-09-10T06:10:17.922Z,8.02
2022-09-10T06:12:48.017Z,7.72
2022-09-10T06:15:15.183Z,7.65
2022-09-10T06:17:42.616Z,7.60
2022-09-10T06:20:12.891Z,8.63
2022-09-10T06:22:40.405Z,8.38
2022-09-10T06:25:07.815Z,9.55
2022-09-10T06:27:35.032Z,9.25
2022-09-10T06:30:02.148Z,10.38
2022-09-10T06:32:29.280Z,9.63
2022-09-10T06:34:56.370Z,11.32
2022-09-10T06:37:24.193Z,11.07
2022-09-10T06:39:51.365Z,10.65
2022-09-10T06:42:18.634Z,10.27
2022-09-10T06:44:45.732Z,10.23
2022-09-10T06:48:06.514Z,11.32
2022-09-10T06:50:00.112Z,10.63
2022-09-10T06:52:29.115Z,12.00
2022-09-10T06:54:56.648Z,10.80
2022-09-10T06:57:26.915Z,10.55
2022-09-10T06:59:54.057Z,9.35
2022-09-10T07:02:21.184Z,10.32
2022-09-10T07:04:48.337Z,9.40
2022-09-10T07:07:15.453Z,8.75
2022-09-10T07:09:43.220Z,9.93
2022-09-10T07:12:10.316Z,9.68
2022-09-10T07:14:37.442Z,10.02
2022-09-10T07:17:04.612Z,9.43
2022-09-10T07:19:33.271Z,9.90
2022-09-10T07:22:01.193Z,10.10
2022-09-10T07:24:28.595Z,8.25
2022-09-10T07:26:56.971Z,9.18
2022-09-10T07:29:24.127Z,11.30
2022-09-10T07:31:51.764Z,9.95
2022-09-10T07:34:20.254Z,8.10
2022-09-10T07:36:47.382Z,7.68
2022-09-10T07:39:14.551Z,7.85
2022-09-10T07:41:41.830Z,7.15
2022-09-10T07:44:08.984Z,7.00
2022-09-10T07:46:37.914Z,7.30
2022-09-10T07:49:05.011Z,6.53
2022-09-10T07:51:33.121Z,6.10
2022-09-10T07:54:00.298Z,6.60
2022-09-10T07:56:27.615Z,6.55
2022-09-10T07:58:57.016Z,6.68
2022-09-10T08:01:24.250Z,5.63
2022-09-10T08:03:51.397Z,5.60
2022-09-10T08:06:19.436Z,5.85
2022-09-10T08:08:46.543Z,6.07
2022-09-10T08:11:14.902Z,5.85
2022-09-10T08:13:42.335Z,6.25
2022-09-10T08:16:10.097Z,5.20
2022-09-10T08:18:37.455Z,5.85
2022-09-10T08:21:05.118Z,7.50
2022-09-10T08:23:32.731Z,6.00
2022-09-10T08:25:59.885Z,5.28
2022-09-10T08:28:27.365Z,3.80
2022-09-10T08:30:58.457Z,2.97
2022-09-10T08:33:25.735Z,2.42
2022-09-10T08:35:53.953Z,2.58
2022-09-10T08:38:21.043Z,3.05
2022-09-10T08:40:49.039Z,2.85
2022-09-10T08:43:16.198Z,3.15
2022-09-10T08:45:43.452Z,2.90
2022-09-10T08:48:20.123Z,4.25
2022-09-10T08:50:57.849Z,2.88
2022-09-10T08:53:28.098Z,21.75
2022-09-10T08:55:57.733Z,8.18
2022-09-10T08:58:43.404Z,5.78
2022-09-10T09:01:13.363Z,10.60
2022-09-10T09:03:45.391Z,4.53
2022-09-10T09:06:27.694Z,19.92
2022-09-10T09:08:55.016Z,14.48
2022-09-10T09:11:22.500Z,8.40
2022-09-10T09:14:09.874Z,16.00
2022-09-10T09:16:41.398Z,13.90
2022-09-10T09:19:14.228Z,8.75
2022-09-10T09:21:54.375Z,4.22
2022-09-10T09:24:22.426Z,4.05
2022-09-10T09:26:49.986Z,2.70
2022-09-10T09:29:20.472Z,6.82
2022-09-10T09:31:49.040Z,8.50
2022-09-10T09:34:19.078Z,3.25
2022-09-10T09:36:55.408Z,2.38
2022-09-10T09:39:30.468Z,4.43
2022-09-10T09:42:03.081Z,2.20
2022-09-10T09:44:40.382Z,1.80
2022-09-10T09:47:08.930Z,1.85
2022-09-10T09:49:36.037Z,2.50
2022-09-10T09:52:04.009Z,2.75
2022-09-10T09:57:20.492Z,11.88
2022-09-10T09:59:49.072Z,5.18
2022-09-10T10:02:22.929Z,4.63
2022-09-10T10:05:07.140Z,5.13
2022-09-10T10:07:34.736Z,2.30
2022-09-10T10:10:01.853Z,2.35
2022-09-10T10:12:33.261Z,3.75
2022-09-10T10:15:00.846Z,2.63
2022-09-10T10:17:28.530Z,2.40
2022-09-10T10:20:04.137Z,2.97
2022-09-10T10:22:31.993Z,5.18
2022-09-10T10:25:02.371Z,6.75
2022-09-10T10:27:42.089Z,2.35
2022-09-10T10:30:12.266Z,1.75
2022-09-10T10:32:39.353Z,1.90
2022-09-10T10:35:19.190Z,2.30
2022-09-10T10:37:46.275Z,4.57
2022-09-10T10:40:22.755Z,2.75
2022-09-10T10:42:53.866Z,1.90
2022-09-10T10:45:49.146Z,1.67
2022-09-10T10:48:23.430Z,2.10
2022-09-10T10:50:58.206Z,1.83
2022-09-10T10:53:28.931Z,2.28
2022-09-10T10:56:09.808Z,2.65
2022-09-10T10:58:44.363Z,2.20
2022-09-10T11:01:14.576Z,3.60
2022-09-10T11:03:44.714Z,1.92
2022-09-10T11:06:15.906Z,3.05
2022-09-10T11:08:50.883Z,2.20
2022-09-10T11:11:19.462Z,16.20
2022-09-10T11:13:52.599Z,13.52
2022-09-10T11:16:27.722Z,3.00
2022-09-10T11:18:59.654Z,2.28
2022-09-10T11:21:32.142Z,2.40
2022-09-10T11:24:02.263Z,2.53
2022-09-10T11:26:39.790Z,3.25
2022-09-10T11:29:13.297Z,2.85
2022-09-10T11:31:42.919Z,3.55
2022-09-10T11:34:14.964Z,3.05
2022-09-10T11:36:49.324Z,2.15
2022-09-10T11:39:35.277Z,3.05
2022-09-10T11:42:05.700Z,4.60
2022-09-10T11:44:38.522Z,3.35
2022-09-10T11:47:07.731Z,3.45
2022-09-10T11:49:48.299Z,5.15
2022-09-10T11:52:15.943Z,6.28
2022-09-10T11:54:43.043Z,4.13
2022-09-10T11:57:11.825Z,5.88
2022-09-10T12:00:02.281Z,3.17
2022-09-10T12:02:47.977Z,2.47
2022-09-10T12:05:18.361Z,3.60
2022-09-10T12:07:52.383Z,1.88
2022-09-10T12:10:25.642Z,2.78
2022-09-10T12:12:53.368Z,1.95
2022-09-10T12:15:24.530Z,3.60
2022-09-10T12:17:53.786Z,1.50
2022-09-10T12:20:22.202Z,1.60
2022-09-10T12:22:52.031Z,5.85
2022-09-10T12:25:19.176Z,1.95
2022-09-10T12:27:49.845Z,1.60
2022-09-10T12:30:40.363Z,1.88
2022-09-10T12:33:13.390Z,1.75
2022-09-10T12:35:44.490Z,1.75
2022-09-10T12:38:30.197Z,2.92
2022-09-10T12:40:57.326Z,1.52
2022-09-10T12:43:42.393Z,3.00
2022-09-10T12:46:09.795Z,1.30
2022-09-10T12:48:46.506Z,2.22
2022-09-10T12:51:32.129Z,1.98
2022-09-10T12:54:05.296Z,2.05
2022-09-10T12:56:52.728Z,2.08
2022-09-10T12:59:31.922Z,1.50
2022-09-10T13:01:59.181Z,1.73
2022-09-10T13:04:36.015Z,1.60
2022-09-10T13:07:04.202Z,1.67
2022-09-10T13:09:34.720Z,1.85
2022-09-10T13:12:04.087Z,1.80
2022-09-10T13:14:50.497Z,1.73
2022-09-10T13:17:36.279Z,1.23
2022-09-10T13:20:13.582Z,3.05
2022-09-10T13:23:01.537Z,2.10
2022-09-10T13:25:39.693Z,1.70
2022-09-10T13:28:30.098Z,3.10
2022-09-10T13:31:11.050Z,1.30
2022-09-10T13:33:44.284Z,3.38
2022-09-10T13:36:29.995Z,2.20
2022-09-10T13:39:06.584Z,4.03
2022-09-10T13:41:33.706Z,2.08
2022-09-10T13:44:01.406Z,4.68
2022-09-10T13:46:32.748Z,3.38
2022-09-10T13:49:26.448Z,2.25
2022-09-10T13:51:54.216Z,2.10
2022-09-10T13:54:33.083Z,2.58
2022-09-10T13:57:01.899Z,2.17
2022-09-10T13:59:31.216Z,2.30
2022-09-10T14:01:59.486Z,2.47
2022-09-10T14:04:45.276Z,2.30
2022-09-10T14:07:15.901Z,2.85
2022-09-10T14:09:43.594Z,2.80
2022-09-10T14:12:10.718Z,2.22
2022-09-10T14:14:39.255Z,1.80
2022-09-10T14:17:08.626Z,1.85
2022-09-10T14:19:52.948Z,2.70
2022-09-10T14:22:22.297Z,2.08
2022-09-10T14:24:51.420Z,8.30
2022-09-10T14:27:25.862Z,4.00
2022-09-10T14:29:56.472Z,3.47
2022-09-10T14:32:23.576Z,2.45
2022-09-10T14:34:50.691Z,3.38
2022-09-10T14:37:38.053Z,3.22
2022-09-10T14:40:18.531Z,2.75
2022-09-10T14:42:46.109Z,2.60
2022-09-10T14:45:31.819Z,3.40
2022-09-10T14:47:59.054Z,2.80
2022-09-10T14:50:27.801Z,8.75
2022-09-10T14:52:55.597Z,11.18
2022-09-10T14:55:25.283Z,4.97
2022-09-10T14:57:55.701Z,5.30
2022-09-10T15:00:23.458Z,3.45
2022-09-10T15:02:51.372Z,7.60
2022-09-10T15:05:18.602Z,4.32
2022-09-10T15:07:47.235Z,4.97
2022-09-10T15:10:14.486Z,5.80
2022-09-10T15:12:42.691Z,3.90
2022-09-10T15:15:17.501Z,4.43
2022-09-10T15:17:45.075Z,9.15
2022-09-10T15:20:16.817Z,41.80
2022-09-10T15:22:44.121Z,9.68
2022-09-10T15:25:28.770Z,10.52
2022-09-10T15:27:55.882Z,9.80
2022-09-10T15:30:24.282Z,12.00
2022-09-10T15:32:54.361Z,9.02
2022-09-10T15:35:25.346Z,7.78
2022-09-10T15:37:52.477Z,4.05
2022-09-10T15:40:19.585Z,3.45
2022-09-10T15:42:46.718Z,4.00
2022-09-10T15:45:13.903Z,6.30
2022-09-10T15:47:41.888Z,4.40
2022-09-10T15:50:10.182Z,8.85
2022-09-10T15:52:37.352Z,3.53
2022-09-10T15:55:04.619Z,3.72
2022-09-10T15:57:31.831Z,3.38
2022-09-10T16:00:01.682Z,4.05
2022-09-10T16:02:28.841Z,4.15
2022-09-10T16:04:55.949Z,4.47
2022-09-10T16:07:23.053Z,4.00
2022-09-10T16:09:50.220Z,4.63
2022-09-10T16:12:17.539Z,4.40
2022-09-10T16:14:45.278Z,12.98
2022-09-10T16:17:12.643Z,5.65
2022-09-10T16:19:39.882Z,4.93
2022-09-10T16:22:08.124Z,7.13
2022-09-10T16:24:35.302Z,5.10
2022-09-10T16:27:02.394Z,5.07
2022-09-10T16:29:29.538Z,5.32
2022-09-10T16:31:56.681Z,5.00
2022-09-10T16:34:24.435Z,5.18
2022-09-10T16:36:51.549Z,4.63
2022-09-10T16:39:19.136Z,3.97
2022-09-10T16:41:47.221Z,5.65
2022-09-10T16:44:14.793Z,5.53
2022-09-10T16:46:42.322Z,14.80
2022-09-10T16:49:15.234Z,7.65
2022-09-10T16:51:42.961Z,8.73
2022-09-10T16:54:10.209Z,8.38
2022-09-10T16:56:38.021Z,8.75
2022-09-10T16:59:07.471Z,10.60
2022-09-10T17:01:35.702Z,11.52
2022-09-10T17:04:07.481Z,12.88
2022-09-10T17:06:34.912Z,13.18
2022-09-10T17:09:02.237Z,13.25
2022-09-10T17:11:33.233Z,14.05
2022-09-10T17:14:03.672Z,19.08
2022-09-10T17:16:32.594Z,23.67
2022-09-10T17:19:03.776Z,31.15
2022-09-10T17:21:31.955Z,24.92
2022-09-10T17:23:59.905Z,22.05
2022-09-10T17:26:27.151Z,25.65
2022-09-10T17:28:58.128Z,55.55
2022-09-10T17:31:25.339Z,67.57
2022-09-10T17:33:52.515Z,54.63
2022-09-10T17:36:19.664Z,21.45
2022-09-10T17:38:47.373Z,17.38
2022-09-10T17:41:14.642Z,16.27
2022-09-10T17:43:42.456Z,11.50
2022-09-10T17:46:10.789Z,8.80
2022-09-10T17:48:38.087Z,15.43
2022-09-10T17:51:08.777Z,9.98
2022-09-10T17:53:35.945Z,12.88
2022-09-10T17:56:04.129Z,13.75
2022-09-10T17:58:33.306Z,11.63
2022-09-10T18:01:01.151Z,12.50
2022-09-10T18:03:28.467Z,15.65
2022-09-10T18:05:57.026Z,11.57
2022-09-10T18:08:24.197Z,10.43
2022-09-10T18:11:01.038Z,11.50
2022-09-10T18:13:29.428Z,14.65
2022-09-10T18:15:56.709Z,20.70
2022-09-10T18:18:23.970Z,17.98
2022-09-10T18:20:51.225Z,15.55
2022-09-10T18:23:19.447Z,14.57
2022-09-10T18:25:49.829Z,15.63
2022-09-10T18:28:17.268Z,16.02
2022-09-10T18:30:44.422Z,11.40
2022-09-10T18:33:11.801Z,10.40
2022-09-10T18:35:39.333Z,11.27
2022-09-10T18:38:06.448Z,14.98
2022-09-10T18:40:36.813Z,18.08
2022-09-10T18:43:05.820Z,17.90
2022-09-10T18:45:33.239Z,13.05
2022-09-10T18:48:01.103Z,14.15
2022-09-10T18:50:28.416Z,12.80
2022-09-10T18:52:55.535Z,16.90
2022-09-10T18:55:22.694Z,14.18
2022-09-10T18:57:49.783Z,14.95
2022-09-10T19:00:16.932Z,12.55
2022-09-10T19:02:45.937Z,10.90
2022-09-10T19:05:13.462Z,9.85
2022-09-10T19:07:40.651Z,10.05
2022-09-10T19:10:08.917Z,8.77
2022-09-10T19:12:36.088Z,7.65
2022-09-10T19:15:03.183Z,8.57
2022-09-10T19:17:30.377Z,10.30
2022-09-10T19:19:58.003Z,8.77
2022-09-10T19:22:25.196Z,10.93
2022-09-10T19:24:56.173Z,7.53
2022-09-10T19:27:24.186Z,5.60
2022-09-10T19:29:51.921Z,5.78
2022-09-10T19:32:22.345Z,6.43
2022-09-10T19:34:50.163Z,12.80
2022-09-10T19:37:17.351Z,9.30
2022-09-10T19:39:44.664Z,7.78
2022-09-10T19:42:12.638Z,7.97
2022-09-10T19:44:39.900Z,7.18
2022-09-10T19:47:07.068Z,9.50
2022-09-10T19:49:34.398Z,8.13
2022-09-10T19:52:01.763Z,6.97
2022-09-10T19:54:30.423Z,16.33
2022-09-10T19:56:57.825Z,15.25
2022-09-10T19:59:24.986Z,13.93
2022-09-10T20:01:52.299Z,8.77
2022-09-10T20:04:19.552Z,5.72
2022-09-10T20:06:47.755Z,5.32
2022-09-10T20:09:14.956Z,5.65
2022-09-10T20:11:42.195Z,4.47
2022-09-10T20:14:11.109Z,5.55
2022-09-10T20:16:38.812Z,5.40
2022-09-10T20:19:06.160Z,5.43
2022-09-10T20:21:33.423Z,9.15
2022-09-10T20:24:00.582Z,7.93
2022-09-10T20:26:27.734Z,7.18
2022-09-10T20:28:55.877Z,8.60
2022-09-10T20:31:23.473Z,10.75
2022-09-10T20:33:54.188Z,12.43
2022-09-10T20:36:22.859Z,9.18
2022-09-10T20:39:00.958Z,10.73
2022-09-10T20:41:40.718Z,11.48
2022-09-10T20:45:23.895Z,11.65
2022-09-10T20:47:18.403Z,13.13
2022-09-10T20:50:42.360Z,11.77
2022-09-10T20:53:20.081Z,11.23
2022-09-10T20:59:26.880Z,14.85
2022-09-10T21:01:58.232Z,10.90
2022-09-10T21:07:39.659Z,13.50
2022-09-10T21:10:57.477Z,25.58
2022-09-10T21:35:22.619Z,9.45
2022-09-10T21:49:20.581Z,26.25
2022-09-10T21:56:17.654Z,21.55
2022-09-10T22:02:34.669Z,19.33
2022-09-10T22:14:48.664Z,9.90
2022-09-10T22:17:45.101Z,13.68
2022-09-10T22:20:55.958Z,9.60
2022-09-10T22:27:58.831Z,12.30
2022-09-10T22:31:26.423Z,16.38
2022-09-10T22:37:55.727Z,18.15
2022-09-10T22:40:43.298Z,13.57
2022-09-10T22:43:35.312Z,12.10
2022-09-10T22:46:42.044Z,17.05
2022-09-10T22:49:49.809Z,10.90
2022-09-10T22:56:09.816Z,7.60
2022-09-10T23:02:28.006Z,8.65
2022-09-10T23:11:37.731Z,10.90
2022-09-10T23:31:23.685Z,10.07
2022-09-10T23:51:26.543Z,15.23
